Fair Grove, Missouri
Current Conditions -  °F | °C
As of 8:52 AM on Friday 31 Oct 2014 (Local Time) from KSGF Reporting Station
Overcast Overcast  
Wind Chill: 40°   Ceiling: 2500
Heat Index: 47°   Visibility: 10mi
Dew Point: 37°   Wind: 20mph
Humidity: 68%   Direction: 360°N
Pressure: 30.29"   Gusts: 29mph
Location:  37.38°N, 93.15°W
Report Text: KSGF 311352Z 36017G25KT 10SM OVC025 08/03 A3029 RMK AO2 PK WND 35026/1336 SLP259 T00830028
Loading
Personal Weather Stations






























Interactive Weather Map New forecast layout! Learn more

10-Day Weather Forecast

Advertisements
Track Severe Weather on mobile